Time;durP1;ratioP1;P1;durP2;ratioP2;P2;SDS_P1;SDS_P2;PMS_P1;PMS_P2;Temp;Humidity;BMP_temperature;BMP_pressure;BME280_temperature;BME280_humidity;BME280_pressure;Samples;Min_cycle;Max_cycle;Signal;HPM_P1;HPM_P2
2021/05/18 00:00:27;;;;;;;1.60;0.77;;;10.30;99.90;;;9.74;89.45;100162.97;4990172;28;20061;-61
2021/05/18 00:02:54;;;;;;;4.40;0.73;;;10.20;99.90;;;9.73;89.05;100169.13;4989918;28;20035;-61
2021/05/18 00:05:24;;;;;;;3.28;0.88;;;10.30;99.90;;;9.71;88.89;100158.06;4989559;28;20285;-61
2021/05/18 00:07:59;;;;;;;5.55;0.60;;;10.20;99.90;;;9.70;88.79;100151.22;4989735;28;20494;-61
2021/05/18 00:13:15;;;;;;;0.45;0.13;;;10.20;99.90;;;9.39;89.89;100153.31;4989907;28;20055;-61
2021/05/18 00:15:43;;;;;;;1.65;0.20;;;10.00;99.90;;;9.23;90.28;100157.34;4989645;28;20406;-61
2021/05/18 00:18:09;;;;;;;1.10;0.20;;;9.90;99.90;;;9.14;90.54;100155.59;4971932;28;20434;-61
2021/05/18 00:20:35;;;;;;;0.95;0.20;;;9.80;99.90;;;9.11;90.70;100160.25;4989436;28;20030;-61
2021/05/18 00:23:08;;;;;;;1.90;0.20;;;9.70;99.90;;;9.13;90.38;100168.72;4990069;28;20124;-61
2021/05/18 00:25:34;;;;;;;1.13;0.20;;;9.70;99.90;;;9.25;89.67;100163.22;4989033;28;20035;-61
2021/05/18 00:28:01;;;;;;;0.80;0.20;;;9.80;99.90;;;9.29;89.47;100163.75;4989556;28;20030;-62
2021/05/18 00:30:27;;;;;;;2.00;0.90;;;9.80;99.90;;;9.35;89.85;100163.19;4989912;28;20045;-61
2021/05/18 00:32:54;;;;;;;4.88;1.40;;;9.80;99.90;;;9.38;89.95;100162.06;4989676;28;20038;-62
2021/05/18 00:35:21;;;;;;;4.32;1.35;;;9.90;99.90;;;9.40;90.55;100170.56;4989373;28;20033;-61
2021/05/18 00:37:47;;;;;;;8.20;1.65;;;9.90;99.90;;;9.44;90.65;100166.72;4988770;28;20089;-62
2021/05/18 00:40:18;;;;;;;4.90;1.80;;;10.00;99.90;;;9.45;90.44;100157.94;4988978;28;20050;-61
2021/05/18 00:42:52;;;;;;;2.28;1.10;;;10.00;99.90;;;9.51;90.12;100157.34;4988940;28;20100;-62
2021/05/18 00:45:35;;;;;;;3.78;0.95;;;10.00;99.90;;;9.55;89.74;100154.31;4989505;28;20034;-61
2021/05/18 00:48:05;;;;;;;1.95;0.70;;;10.10;99.90;;;9.59;89.05;100144.44;4988818;28;20402;-61
2021/05/18 00:50:32;;;;;;;2.63;0.63;;;10.10;99.90;;;9.66;88.90;100163.69;4988995;28;20072;-62
2021/05/18 00:52:59;;;;;;;4.45;1.00;;;10.20;99.90;;;9.63;88.75;100164.00;4988044;28;20118;-61
2021/05/18 00:55:50;;;;;;;4.53;0.75;;;10.10;99.90;;;9.61;89.18;100163.31;4988824;28;20508;-61
2021/05/18 00:58:26;;;;;;;;;;;10.10;99.90;;;9.58;89.54;100164.41;4980689;28;20073;-61
2021/05/18 01:01:01;;;;;;;2.35;0.80;;;10.10;99.90;;;9.58;89.48;100169.63;4988579;28;19922;-62
2021/05/18 01:03:29;;;;;;;2.90;0.97;;;10.10;99.90;;;9.58;89.08;100164.41;4989363;28;20063;-62
2021/05/18 01:08:42;;;;;;;3.35;1.52;;;10.10;99.90;;;9.55;89.77;100167.31;4989613;28;20053;-61
2021/05/18 01:11:08;;;;;;;4.50;1.60;;;10.10;99.90;;;9.54;90.01;100163.06;4988693;28;20234;-61
2021/05/18 01:13:35;;;;;;;4.57;1.75;;;10.10;99.90;;;9.53;89.65;100151.03;4989012;28;20054;-61
2021/05/18 01:16:07;;;;;;;4.57;1.40;;;10.10;99.90;;;9.53;89.72;100160.63;4988606;28;20034;-60
2021/05/18 01:18:43;;;;;;;3.15;1.10;;;10.10;99.90;;;9.55;89.82;100156.91;4988414;28;20074;-61
2021/05/18 01:21:11;;;;;;;3.22;0.43;;;10.10;99.90;;;9.61;88.42;100156.31;4988618;28;20104;-61
2021/05/18 01:23:37;;;;;;;3.13;0.43;;;10.10;99.90;;;9.48;88.67;100152.44;4989050;28;20441;-61
2021/05/18 01:26:04;;;;;;;2.10;0.20;;;10.10;99.90;;;9.27;89.07;100152.69;4988710;28;20034;-62
2021/05/18 01:28:31;;;;;;;1.77;0.30;;;9.90;99.90;;;9.17;89.28;100157.09;4988613;28;20049;-61
2021/05/18 01:30:59;;;;;;;2.90;0.30;;;9.80;99.90;;;9.02;89.96;100155.91;4988802;28;20057;-61
2021/05/18 01:33:25;;;;;;;0.63;0.20;;;9.70;99.90;;;8.91;90.39;100149.94;4988654;28;20117;-61
2021/05/18 01:35:54;;;;;;;5.53;0.47;;;9.50;99.90;;;8.85;90.59;100150.50;4988843;28;20121;-61
2021/05/18 01:38:23;;;;;;;1.15;0.20;;;9.40;99.90;;;8.86;90.76;100143.53;4988214;28;20493;-61
2021/05/18 01:43:34;;;;;;;1.48;0.30;;;9.50;99.90;;;8.90;89.96;100153.50;4988365;28;20069;-61
2021/05/18 01:46:00;;;;;;;2.47;0.20;;;9.50;99.90;;;8.96;90.48;100154.72;4988982;28;20038;-62
2021/05/18 01:48:26;;;;;;;2.78;1.40;;;9.50;99.90;;;9.11;90.15;100155.88;4988454;28;20046;-61
2021/05/18 01:50:53;;;;;;;4.57;1.40;;;9.60;99.90;;;9.31;90.22;100151.44;4971010;28;20077;-61
2021/05/18 01:53:21;;;;;;;2.70;0.93;;;9.80;99.90;;;9.46;89.65;100147.38;4988217;28;20142;-61
2021/05/18 01:58:15;;;;;;;3.03;1.58;;;10.00;99.90;;;9.49;89.25;100165.28;4988550;28;20034;-61
2021/05/18 02:00:41;;;;;;;3.78;1.95;;;10.00;99.90;;;9.54;89.24;100157.88;4987911;28;20521;-61
2021/05/18 02:03:08;;;;;;;5.13;1.40;;;10.00;99.90;;;9.54;88.82;100157.88;4988727;28;20038;-61
2021/05/18 02:05:39;;;;;;;5.38;2.33;;;10.00;99.90;;;9.55;89.88;100154.31;4986817;28;20034;-61
2021/05/18 02:08:11;;;;;;;4.30;1.92;;;10.10;99.90;;;9.54;89.31;100146.66;4988453;28;20113;-62
2021/05/18 02:10:38;;;;;;;4.32;2.67;;;10.10;99.90;;;9.54;89.51;100146.66;4955171;28;20070;-61
2021/05/18 02:13:04;;;;;;;4.35;2.40;;;10.00;99.90;;;9.50;89.39;100153.91;4988345;28;20044;-61
2021/05/18 02:15:50;;;;;;;6.10;2.22;;;10.00;99.90;;;9.44;89.66;100159.72;4987988;28;20026;-62
2021/05/18 02:26:21;;;;;;;4.13;0.80;;;9.90;99.90;;;9.21;90.09;100151.47;4988788;28;20201;-60
2021/05/18 02:28:47;;;;;;;3.30;0.47;;;9.80;99.90;;;9.08;89.94;100150.16;4987682;28;20577;-61
2021/05/18 02:31:13;;;;;;;4.85;0.30;;;9.70;99.90;;;8.86;90.70;100149.56;4987934;28;20039;-61
2021/05/18 02:33:42;;;;;;;0.43;0.20;;;9.50;99.90;;;8.77;90.72;100152.16;4987758;28;20042;-61
2021/05/18 02:36:08;;;;;;;0.98;0.22;;;9.40;99.90;;;8.64;90.94;100149.88;4987968;28;20585;-61
2021/05/18 02:38:34;;;;;;;2.00;0.40;;;9.30;99.90;;;8.65;90.95;100169.69;4988457;28;20129;-60
2021/05/18 02:41:00;;;;;;;1.95;0.40;;;9.20;99.90;;;8.79;90.54;100160.63;5293907;23;20127;-61
2021/05/18 02:43:32;;;;;;;4.88;1.05;;;9.30;99.90;;;8.98;91.06;100169.19;4816814;23;20066;-61
2021/05/18 02:51:11;;;;;;;4.63;1.48;;;9.70;99.90;;;9.18;90.36;100182.94;4987705;28;20516;-61
2021/05/18 02:53:38;;;;;;;3.22;1.13;;;9.70;99.90;;;9.13;90.71;100184.31;4987955;28;20101;-62
2021/05/18 02:56:24;;;;;;;2.08;1.08;;;9.70;99.90;;;9.11;91.02;100183.66;4987038;28;20121;-61
2021/05/18 03:01:32;;;;;;;2.05;0.77;;;9.60;99.90;;;9.13;91.50;100190.34;4982321;28;20039;-61
2021/05/18 03:03:58;;;;;;;2.25;0.68;;;9.60;99.90;;;9.13;91.24;100185.16;4987432;28;20474;-61
2021/05/18 03:06:24;;;;;;;1.27;0.50;;;9.60;99.90;;;9.18;91.25;100188.16;4987505;28;20038;-61
2021/05/18 03:08:50;;;;;;;3.50;0.63;;;9.70;99.90;;;9.20;91.01;100186.22;4987582;28;20039;-61
2021/05/18 03:11:17;;;;;;;2.15;0.73;;;9.70;99.90;;;9.20;91.04;100195.81;4987114;28;20049;-61
2021/05/18 03:13:43;;;;;;;1.50;0.60;;;9.70;99.90;;;9.23;91.01;100196.34;4987647;28;20042;-61
2021/05/18 03:16:09;;;;;;;2.42;0.73;;;9.70;99.90;;;9.23;90.82;100195.53;4988458;28;20038;-61
2021/05/18 03:18:35;;;;;;;1.95;0.60;;;9.70;99.90;;;9.27;89.94;100213.28;4991192;28;20034;-61
2021/05/18 03:21:03;;;;;;;1.27;0.50;;;9.70;99.90;;;9.25;89.94;100214.41;4990946;28;20058;-61
2021/05/18 03:23:29;;;;;;;1.88;0.80;;;9.80;99.90;;;9.22;90.05;100217.28;4983458;28;20034;-61
2021/05/18 03:25:55;;;;;;;2.15;0.70;;;9.70;99.90;;;9.21;90.14;100213.03;4991165;28;20046;-61
2021/05/18 03:28:22;;;;;;;1.40;0.65;;;9.80;99.90;;;9.12;90.42;100213.88;4990914;28;20121;-61
2021/05/18 03:31:07;;;;;;;2.63;1.38;;;9.70;99.90;;;9.10;90.97;100215.81;4990867;28;20053;-61
2021/05/18 03:36:17;;;;;;;5.18;1.60;;;9.60;99.90;;;9.09;91.25;100221.97;4990915;28;20579;-61
2021/05/18 03:38:50;;;;;;;2.53;0.93;;;9.60;99.90;;;9.08;91.43;100226.34;4990909;28;20034;-61
2021/05/18 03:41:21;;;;;;;1.50;0.70;;;9.60;99.90;;;9.15;91.32;100229.19;4990546;28;20074;-60
2021/05/18 04:24:04;;;;;;;1.10;0.50;;;15.90;99.90;;;14.77;71.11;100257.72;4989476;28;20461;-61
2021/05/18 05:00:02;;;;;;;1.33;0.63;;;20.10;74.70;;;16.57;60.36;100265.13;4989226;28;20104;-56
2021/05/18 05:07:15;;;;;;;2.22;1.20;;;19.80;73.40;;;17.68;55.85;100260.91;4988885;28;20042;-55
2021/05/18 05:09:47;;;;;;;1.95;1.15;;;20.40;72.90;;;18.19;56.47;100275.28;4989676;28;20129;-55
2021/05/18 05:14:42;;;;;;;2.08;1.17;;;21.30;68.30;;;18.62;55.27;100290.00;4989136;28;20039;-54
2021/05/18 05:17:09;;;;;;;3.42;0.75;;;21.60;68.10;;;18.39;55.49;100285.09;4988927;28;20027;-58
2021/05/18 05:19:35;;;;;;;1.25;0.85;;;21.70;66.80;;;18.13;56.11;100285.81;4989061;28;20035;-57
2021/05/18 05:22:04;;;;;;;2.65;1.05;;;21.50;67.20;;;18.06;56.82;100287.59;4988361;28;20038;-55
2021/05/18 05:24:31;;;;;;;1.05;0.80;;;21.20;68.60;;;17.30;58.45;100289.44;4989053;28;20690;-57
2021/05/18 05:26:58;;;;;;;1.85;1.00;;;20.70;69.00;;;17.84;57.48;100281.66;4963393;28;20046;-57
2021/05/18 05:29:24;;;;;;;1.30;0.90;;;20.80;69.50;;;18.80;54.40;100284.97;4988672;28;20105;-53
2021/05/18 05:31:52;;;;;;;6.75;1.00;;;21.90;66.30;;;18.67;54.76;100277.03;4988693;28;20042;-59
2021/05/18 05:34:18;;;;;;;1.05;0.60;;;22.20;65.30;;;18.57;55.56;100280.84;4988297;28;20056;-53
2021/05/18 05:36:46;;;;;;;2.03;0.43;;;22.30;65.20;;;18.87;54.47;100278.69;4988388;28;20037;-54
2021/05/18 05:39:21;;;;;;;2.20;0.57;;;22.60;63.30;;;19.44;52.86;100261.31;4987957;28;20034;-56
2021/05/18 05:41:48;;;;;;;1.30;0.60;;;23.00;62.10;;;19.04;53.70;100267.69;4988504;28;20117;-60
2021/05/18 05:44:13;;;;;;;3.35;0.75;;;22.80;61.30;;;19.07;53.49;100273.38;4987973;28;20057;-54
2021/05/18 05:46:39;;;;;;;4.68;1.67;;;23.20;61.00;;;19.58;52.85;100271.88;4988598;28;20387;-55
2021/05/18 05:49:06;;;;;;;3.08;1.25;;;23.20;61.70;;;20.04;50.80;100267.22;4988215;28;20525;-54
2021/05/18 05:51:32;;;;;;;6.63;1.38;;;23.70;58.80;;;20.61;50.13;100275.28;4988309;28;20061;-55
2021/05/18 05:53:59;;;;;;;4.55;1.10;;;24.30;58.60;;;20.73;49.69;100266.44;4988338;28;20113;-53
2021/05/18 05:56:29;;;;;;;3.30;0.90;;;25.00;56.70;;;21.31;48.56;100276.72;4987796;28;20046;-58
2021/05/18 05:58:56;;;;;;;7.80;1.08;;;25.40;56.10;;;20.97;49.32;100274.56;4988222;28;20034;-54
2021/05/18 06:01:22;;;;;;;1.10;0.20;;;25.40;55.50;;;20.46;49.46;100284.31;4987798;28;20146;-57
2021/05/18 06:03:48;;;;;;;3.15;0.20;;;25.00;54.70;;;20.86;49.27;100284.03;4988301;28;20192;-55
2021/05/18 06:06:14;;;;;;;0.40;0.20;;;25.00;55.80;;;20.52;49.82;100287.94;4987569;28;20042;-55
2021/05/18 06:08:45;;;;;;;1.95;0.22;;;24.80;55.20;;;19.72;51.53;100297.28;4988448;28;20177;-52
2021/05/18 06:13:59;;;;;;;2.35;0.15;;;24.20;56.60;;;19.67;52.58;100308.47;4982227;28;20038;-57
2021/05/18 06:48:26;;;;;;;0.60;0.00;;;24.80;54.50;;;20.23;51.38;100330.84;4987419;28;20046;-61
2021/05/18 06:50:52;;;;;;;2.92;0.30;;;24.30;56.30;;;20.21;51.78;100331.84;4988581;28;20111;-60
2021/05/18 06:53:18;;;;;;;1.90;0.10;;;24.30;56.80;;;20.29;51.59;100344.03;4991352;28;20424;-58
2021/05/18 06:55:45;;;;;;;0.82;0.10;;;24.50;55.60;;;20.13;50.82;100347.97;4991067;28;20042;-58
2021/05/18 06:58:13;;;;;;;0.63;0.15;;;24.30;55.30;;;19.90;51.46;100347.63;4991470;28;20030;-59
2021/05/18 07:00:42;;;;;;;0.30;0.00;;;23.80;56.70;;;19.67;51.42;100345.47;4986620;28;20146;-59
2021/05/18 07:03:16;;;;;;;0.20;0.00;;;23.60;56.60;;;20.00;50.78;100341.91;4972717;28;20041;-58
2021/05/18 07:05:51;;;;;;;2.83;0.10;;;23.90;56.20;;;20.01;50.28;100362.03;4972654;28;20098;-61
2021/05/18 07:10:46;;;;;;;2.80;0.10;;;24.30;55.70;;;20.11;50.55;100365.06;4972497;28;20087;-60
2021/05/18 07:13:13;;;;;;;1.20;0.10;;;24.10;55.90;;;20.51;49.25;100371.00;4972732;28;20079;-60
2021/05/18 07:15:39;;;;;;;1.95;0.00;;;24.70;54.80;;;20.63;48.37;100379.09;4972919;28;20042;-61
2021/05/18 07:18:07;;;;;;;2.08;0.08;;;24.90;53.50;;;20.76;47.42;100371.09;4972496;28;20062;-60
2021/05/18 07:20:34;;;;;;;1.95;0.10;;;24.80;53.80;;;19.90;49.40;100379.34;4972672;28;20105;-61
2021/05/18 07:23:07;;;;;;;4.47;0.10;;;22.80;58.00;;;18.81;53.14;100371.06;4990519;28;20493;-60
2021/05/18 07:25:33;;;;;;;0.43;0.00;;;20.60;65.40;;;18.44;54.69;100377.59;4991091;28;20049;-60
2021/05/18 07:28:00;;;;;;;1.88;0.10;;;19.50;69.30;;;17.82;56.89;100373.28;4991313;28;20050;-60
2021/05/18 07:30:26;;;;;;;2.45;0.10;;;18.80;72.50;;;17.67;57.46;100362.84;4990002;28;20502;-60
2021/05/18 07:32:52;;;;;;;0.47;0.00;;;18.40;74.60;;;17.78;57.22;100366.75;4991206;28;20041;-61
2021/05/18 07:35:18;;;;;;;3.70;0.17;;;18.30;75.60;;;17.70;57.12;100366.91;4989080;28;20120;-60
2021/05/18 07:37:44;;;;;;;1.15;0.10;;;18.20;76.90;;;17.83;56.74;100370.44;4987353;28;20629;-61
2021/05/18 07:40:11;;;;;;;1.13;0.20;;;18.10;77.40;;;17.76;57.42;100366.94;4991764;28;20033;-60
2021/05/18 07:42:37;;;;;;;0.65;0.10;;;18.20;78.80;;;18.03;56.58;100375.81;4989864;28;20045;-61
2021/05/18 07:45:06;;;;;;;0.45;0.08;;;18.40;79.10;;;18.16;55.82;100375.88;4990681;28;20447;-63
2021/05/18 07:47:35;;;;;;;1.95;0.10;;;18.40;78.60;;;18.35;55.28;100369.06;4961012;28;20118;-61
2021/05/18 07:50:14;;;;;;;3.50;0.20;;;18.50;78.40;;;18.41;55.33;100359.56;4986471;28;20046;-59
2021/05/18 08:01:05;;;;;;;1.92;0.00;;;19.00;79.10;;;18.85;53.25;100346.69;4990056;28;20112;-61
2021/05/18 08:06:16;;;;;;;0.68;0.00;;;19.40;76.90;;;19.18;51.34;100341.44;4983862;28;20145;-60
2021/05/18 08:08:42;;;;;;;0.30;0.17;;;19.60;73.50;;;19.73;50.34;100341.19;4990347;28;20041;-61
2021/05/18 08:11:08;;;;;;;0.75;0.00;;;19.80;73.40;;;20.04;49.17;100337.81;4989743;28;20042;-60
2021/05/18 08:13:34;;;;;;;1.55;0.00;;;20.30;71.20;;;20.44;48.90;100327.91;4990292;28;20061;-57
2021/05/18 08:58:22;;;;;;;1.65;0.00;;;22.50;64.30;;;22.48;43.56;100335.75;4989867;28;20041;-58
2021/05/18 10:38:36;;;;;;;0.40;0.00;;;23.40;56.40;;;23.22;39.86;100302.53;4979853;28;20033;-53
2021/05/18 10:41:19;;;;;;;0.85;0.10;;;23.40;57.50;;;23.04;39.57;100310.63;4980379;28;20046;-54
2021/05/18 10:44:00;;;;;;;1.67;0.03;;;23.30;57.50;;;23.25;37.61;100306.56;4987308;28;20051;-53
2021/05/18 10:46:30;;;;;;;0.30;0.00;;;23.50;55.40;;;23.22;39.20;100312.34;4987863;28;20031;-57
2021/05/18 10:49:16;;;;;;;1.60;0.10;;;23.50;57.20;;;23.22;38.39;100318.47;4986345;28;20532;-54
2021/05/18 10:51:54;;;;;;;0.60;0.00;;;23.50;56.00;;;23.54;37.42;100315.50;4987899;28;20042;-55
2021/05/18 10:54:24;;;;;;;1.25;0.00;;;23.80;55.10;;;23.57;38.63;100309.72;4987603;28;20469;-51
2021/05/18 10:56:56;;;;;;;1.65;0.00;;;23.80;56.40;;;23.85;38.61;100309.75;4981962;28;20058;-56
2021/05/18 10:59:24;;;;;;;1.02;0.00;;;24.10;56.20;;;24.01;38.30;100306.38;4966771;28;20137;-53
2021/05/18 11:02:14;;;;;;;0.70;0.08;;;24.20;56.10;;;23.98;37.18;100290.88;4987737;28;20038;-54
2021/05/18 11:04:48;;;;;;;0.40;0.00;;;24.30;55.30;;;23.82;37.95;100302.25;4984714;28;20050;-57
2021/05/18 11:07:22;;;;;;;0.90;0.20;;;24.20;54.90;;;23.86;38.36;100295.41;4981710;28;20061;-56
2021/05/18 11:09:50;;;;;;;3.22;0.05;;;24.20;55.10;;;23.70;38.12;100296.16;4986818;28;20042;-57
2021/05/18 11:12:22;;;;;;;2.08;0.10;;;24.10;55.20;;;23.58;38.72;100301.50;4984649;28;20038;-57
2021/05/18 11:14:51;;;;;;;1.08;0.10;;;24.00;55.60;;;23.43;37.72;100290.50;4987685;28;20034;-50
2021/05/18 11:17:31;;;;;;;0.63;0.10;;;23.90;54.30;;;23.44;38.39;100287.63;4979370;28;20157;-52
2021/05/18 11:23:29;;;;;;;1.25;0.10;;;23.80;56.90;;;23.69;36.61;100294.53;4987034;28;20625;-55
2021/05/18 11:26:12;;;;;;;4.75;0.20;;;24.00;55.30;;;23.41;39.71;100277.44;4955222;28;20073;-56
2021/05/18 11:28:45;;;;;;;1.35;0.10;;;23.80;56.70;;;23.88;39.57;100285.34;4986854;28;20039;-58
2021/05/18 11:31:19;;;;;;;2.88;0.30;;;24.10;57.40;;;23.54;40.06;100276.44;4985218;28;20035;-54
2021/05/18 11:33:48;;;;;;;1.77;0.10;;;24.00;57.10;;;23.90;40.64;100271.81;4984170;28;20085;-55
2021/05/18 11:36:18;;;;;;;2.42;0.20;;;24.10;58.00;;;24.13;40.69;100280.50;4985092;28;20053;-54
2021/05/18 11:38:54;;;;;;;2.63;0.13;;;24.40;58.30;;;23.64;42.56;100265.16;4990265;28;20040;-59
2021/05/18 11:41:28;;;;;;;2.95;0.15;;;24.10;60.10;;;23.69;42.58;100258.09;4990662;28;20629;-57
2021/05/18 11:43:59;;;;;;;5.35;0.17;;;24.10;60.50;;;23.09;43.57;100257.59;4987722;28;20054;-54
2021/05/18 11:46:28;;;;;;;2.58;0.25;;;23.70;60.70;;;23.11;43.83;100258.19;4987637;28;20038;-54
2021/05/18 11:49:01;;;;;;;5.47;0.20;;;23.60;61.00;;;23.29;43.35;100258.03;4990197;28;20034;-51
2021/05/18 11:51:43;;;;;;;2.85;0.20;;;23.50;61.50;;;23.82;41.78;100249.06;4983857;28;20408;-56
2021/05/18 11:54:10;;;;;;;2.88;0.10;;;24.00;60.40;;;23.49;43.39;100244.38;4990421;28;20077;-58
2021/05/18 11:56:39;;;;;;;2.03;0.30;;;24.10;61.00;;;22.95;44.65;100251.72;4991182;28;20031;-50
2021/05/18 11:59:19;;;;;;;3.35;0.30;;;23.60;61.90;;;23.03;44.18;100242.59;4990610;28;20085;-58
2021/05/18 12:01:56;;;;;;;0.88;0.17;;;23.50;61.80;;;22.96;44.24;100241.88;4984958;28;20397;-53
2021/05/18 12:04:27;;;;;;;3.22;0.25;;;23.40;62.40;;;23.05;45.40;100229.88;4990326;28;20034;-52
2021/05/18 12:07:13;;;;;;;3.53;0.30;;;23.30;63.60;;;23.03;44.16;100232.75;4990825;28;20048;-53
2021/05/18 12:09:43;;;;;;;7.38;0.30;;;23.40;62.10;;;23.63;43.70;100226.34;4990494;28;20046;-56
2021/05/18 12:12:15;;;;;;;2.20;0.20;;;23.80;62.90;;;23.85;43.61;100226.50;4990145;28;20049;-53
2021/05/18 12:14:54;;;;;;;2.50;0.20;;;24.10;62.60;;;23.80;41.83;100214.69;4972487;28;20030;-55
2021/05/18 12:17:33;;;;;;;3.67;0.40;;;24.30;60.30;;;24.15;42.40;100224.38;4990612;28;20045;-57
2021/05/18 12:20:02;;;;;;;2.55;0.20;;;24.40;61.00;;;23.83;42.54;100218.75;4983467;28;20492;-53
2021/05/18 12:22:29;;;;;;;2.75;0.52;;;24.30;59.90;;;24.00;42.25;100218.81;4972614;28;20041;-53
2021/05/18 12:24:56;;;;;;;5.63;0.30;;;24.40;60.60;;;24.10;42.49;100214.44;4990621;28;20572;-54
2021/05/18 12:27:22;;;;;;;3.45;0.20;;;24.40;60.80;;;24.37;40.46;100213.88;4990716;28;20129;-58
2021/05/18 12:29:58;;;;;;;2.22;0.13;;;24.70;59.10;;;24.58;39.01;100213.13;4990003;28;20041;-56
2021/05/18 12:32:24;;;;;;;2.45;0.20;;;25.00;57.00;;;23.64;41.19;100214.63;4990232;28;20045;-58
2021/05/18 12:35:18;;;;;;;1.63;0.20;;;24.60;57.40;;;22.90;42.05;100214.41;4989945;28;20061;-51
2021/05/18 12:37:47;;;;;;;2.45;0.22;;;23.80;58.40;;;23.26;42.92;100209.84;4989307;28;20054;-58
2021/05/18 12:40:25;;;;;;;5.00;0.30;;;23.70;60.30;;;24.24;41.39;100208.81;4980407;28;20037;-59
2021/05/18 12:42:52;;;;;;;4.85;0.30;;;24.30;60.20;;;24.34;40.10;100206.38;4989688;28;20104;-52
2021/05/18 12:45:21;;;;;;;4.50;0.28;;;24.70;58.10;;;24.68;39.27;100197.31;4990126;28;20108;-57
2021/05/18 12:47:55;;;;;;;4.22;0.20;;;25.00;57.10;;;23.73;39.67;100199.94;4964635;28;20042;-54
2021/05/18 12:50:22;;;;;;;1.30;0.10;;;24.70;55.30;;;23.61;40.16;100204.50;4982300;28;20036;-56
2021/05/18 12:52:53;;;;;;;2.47;0.13;;;24.20;56.80;;;23.96;40.98;100194.53;4989938;28;20081;-52
2021/05/18 12:55:51;;;;;;;3.38;0.40;;;24.30;58.20;;;23.84;42.73;100201.75;4990113;28;20041;-58
2021/05/18 12:58:29;;;;;;;3.20;0.30;;;24.40;59.60;;;22.78;45.69;100201.09;4970196;28;20054;-55
2021/05/18 13:01:16;;;;;;;4.07;0.30;;;23.80;61.70;;;22.77;46.55;100198.66;4989701;28;20042;-57
2021/05/18 13:03:43;;;;;;;3.95;0.28;;;23.40;63.60;;;22.11;46.75;100189.91;4972232;28;20209;-57
2021/05/18 13:06:10;;;;;;;4.80;0.28;;;23.00;63.30;;;22.31;47.03;100194.09;4989727;28;20142;-56
2021/05/18 13:08:44;;;;;;;2.90;0.43;;;22.80;64.70;;;22.00;47.76;100182.69;4989350;28;20022;-53
2021/05/18 13:12:11;;;;;;;4.82;0.30;;;22.70;65.00;;;21.53;49.01;100179.84;4989391;28;20543;-58
2021/05/18 13:14:04;;;;;;;6.60;0.28;;;22.30;66.50;;;22.47;47.46;100174.88;4989412;28;20052;-54
2021/05/18 13:16:34;;;;;;;3.65;0.20;;;22.60;66.70;;;22.80;46.88;100185.75;4961921;28;20480;-50
2021/05/18 13:19:07;;;;;;;3.83;0.22;;;23.20;65.40;;;23.15;45.58;100177.78;4983520;28;20030;-48
2021/05/18 13:21:50;;;;;;;3.22;0.20;;;23.50;64.40;;;23.85;42.90;100178.59;4988882;28;20042;-59
2021/05/18 13:26:50;;;;;;;6.03;0.20;;;24.10;61.90;;;22.87;44.69;100175.00;4989107;28;20493;-53
2021/05/18 13:29:19;;;;;;;3.38;0.30;;;23.60;61.80;;;23.00;44.91;100172.13;4989262;28;20407;-55
2021/05/18 13:31:52;;;;;;;4.68;0.45;;;23.50;62.60;;;23.39;44.91;100165.22;4988704;28;20030;-51
2021/05/18 13:34:18;;;;;;;3.20;0.20;;;23.70;63.60;;;24.15;43.84;100161.31;4989513;28;20081;-53
2021/05/18 13:36:45;;;;;;;3.70;0.20;;;24.30;63.60;;;24.47;43.08;100158.13;4988813;28;20069;-54
2021/05/18 13:39:17;;;;;;;2.92;0.32;;;24.80;61.80;;;23.67;44.51;100171.63;4989170;28;20049;-51
2021/05/18 13:41:44;;;;;;;4.95;0.30;;;24.50;61.50;;;22.83;46.77;100169.34;4988888;28;20030;-55
2021/05/18 13:44:10;;;;;;;4.43;0.75;;;23.80;63.10;;;22.96;47.19;100162.19;4988660;28;20038;-55
2021/05/18 13:46:36;;;;;;;3.25;0.20;;;23.60;65.00;;;23.53;45.99;100163.13;4989016;28;20178;-52
2021/05/18 13:49:03;;;;;;;8.15;0.40;;;23.80;65.20;;;23.72;45.95;100155.75;4988464;28;20117;-51
2021/05/18 13:51:30;;;;;;;4.85;0.30;;;24.10;64.90;;;24.16;44.91;100156.78;4982647;28;20102;-52
2021/05/18 13:53:56;;;;;;;6.63;0.45;;;24.50;64.50;;;24.43;45.50;100146.34;4988561;28;20041;-53
2021/05/18 13:56:26;;;;;;;3.72;0.60;;;24.80;64.50;;;23.96;46.59;100151.94;4988471;28;20042;-56
2021/05/18 13:58:53;;;;;;;3.80;0.52;;;24.70;64.60;;;23.39;46.97;100151.94;4988782;28;20035;-53
2021/05/18 14:01:21;;;;;;;4.50;0.40;;;24.20;65.10;;;22.76;48.38;100147.38;4988433;28;20497;-52
2021/05/18 14:03:48;;;;;;;6.07;0.40;;;23.60;65.90;;;22.39;49.84;100148.66;4967416;28;20077;-52
2021/05/18 14:06:15;;;;;;;5.05;0.63;;;23.20;67.80;;;22.96;49.03;100148.91;4985684;28;20497;-56
2021/05/18 14:08:42;;;;;;;7.30;0.45;;;23.50;67.90;;;22.61;49.79;100155.03;4981855;28;20091;-52
2021/05/18 14:11:18;;;;;;;6.70;0.40;;;23.30;68.40;;;22.91;49.62;100149.59;4988448;28;20030;-51
2021/05/18 14:13:55;;;;;;;5.53;0.50;;;23.40;69.20;;;22.67;49.97;100153.31;4988661;28;20152;-48
2021/05/18 14:16:22;;;;;;;6.75;0.60;;;23.30;69.00;;;22.39;51.23;100159.28;4988447;28;20408;-53
2021/05/18 14:18:54;;;;;;;10.10;0.82;;;23.10;69.80;;;22.44;51.07;100151.44;4988516;28;20113;-54
2021/05/18 14:21:22;;;;;;;2.33;0.50;;;23.00;70.70;;;23.25;49.07;100145.25;4988709;28;20355;-50
2021/05/18 14:26:19;;;;;;;6.70;0.85;;;23.80;68.80;;;23.76;47.67;100146.25;4988164;28;20058;-57
2021/05/18 14:28:45;;;;;;;8.88;0.40;;;24.10;67.80;;;23.81;46.76;100135.72;4987658;28;20034;-55
2021/05/18 14:31:12;;;;;;;6.03;0.40;;;24.30;66.00;;;23.72;46.07;100139.78;4988486;28;20159;-51
2021/05/18 14:33:41;;;;;;;8.35;1.15;;;24.30;65.50;;;23.41;46.38;100139.22;4988258;28;20034;-56
2021/05/18 14:36:09;;;;;;;2.88;0.30;;;24.10;64.70;;;23.13;46.04;100142.66;4981011;28;20041;-53
2021/05/18 14:38:37;;;;;;;6.05;0.63;;;23.90;64.20;;;23.01;46.38;100146.38;4988674;28;20038;-54
2021/05/18 14:57:24;;;;;;;5.30;0.30;;;22.90;63.70;;;22.46;46.17;100139.53;4978579;28;20057;-55
2021/05/18 14:59:49;;;;;;;5.35;0.40;;;23.00;64.10;;;22.38;45.98;100144.38;4983392;28;20061;-53
2021/05/18 15:02:17;;;;;;;6.10;0.45;;;23.00;64.30;;;22.18;46.56;100145.53;4983871;28;20038;-58
2021/05/18 15:04:43;;;;;;;3.38;0.45;;;22.90;64.50;;;22.35;45.73;100148.31;4988245;28;20039;-54
2021/05/18 15:07:09;;;;;;;4.35;0.88;;;22.80;64.10;;;22.41;45.33;100143.91;4985025;28;20109;-58
2021/05/18 15:09:38;;;;;;;4.20;0.30;;;22.90;63.70;;;22.48;45.59;100144.63;4981436;28;20129;-55
2021/05/18 15:12:05;;;;;;;9.75;1.00;;;22.90;63.90;;;22.64;45.15;100148.44;4988425;28;20045;-52
2021/05/18 15:14:31;;;;;;;11.15;1.67;;;23.10;63.60;;;23.12;44.29;100134.91;4990501;28;20537;-55
2021/05/18 15:16:57;;;;;;;5.35;0.50;;;23.40;63.50;;;22.66;44.73;100147.19;4988254;28;20041;-47
2021/05/18 15:19:24;;;;;;;14.57;1.27;;;23.20;62.40;;;22.57;44.81;100143.25;4990509;28;20181;-56
2021/05/18 15:21:50;;;;;;;14.57;1.50;;;23.10;63.10;;;22.54;45.06;100149.03;4990115;28;20025;-54
2021/05/18 15:24:17;;;;;;;6.15;0.55;;;23.10;62.90;;;22.27;45.65;100150.47;4989377;28;20040;-56
2021/05/18 15:26:43;;;;;;;3.35;0.30;;;22.80;63.60;;;22.38;45.54;100155.00;4981848;28;20042;-51
2021/05/18 15:29:09;;;;;;;5.40;0.40;;;22.80;63.90;;;22.68;45.12;100145.09;4990705;28;20023;-51
2021/05/18 15:31:35;;;;;;;2.85;0.40;;;23.10;63.80;;;22.45;45.45;100145.91;4989697;28;20061;-53
2021/05/18 15:34:01;;;;;;;8.25;0.30;;;23.00;63.60;;;22.52;44.97;100145.78;4987269;28;20030;-56
2021/05/18 15:36:28;;;;;;;4.68;0.55;;;23.00;63.30;;;22.76;44.63;100142.06;4986931;28;20394;-54
2021/05/18 15:38:54;;;;;;;5.93;0.40;;;23.10;63.30;;;22.82;44.59;100140.38;4986494;28;20057;-52
2021/05/18 15:41:21;;;;;;;3.65;0.50;;;23.30;62.80;;;23.11;43.31;100133.28;4991216;28;20066;-53
2021/05/18 15:43:47;;;;;;;8.10;0.63;;;23.50;62.10;;;23.01;43.18;100139.19;4990026;28;20110;-54
2021/05/18 15:46:15;;;;;;;5.50;0.65;;;23.50;61.00;;;23.00;42.08;100142.09;4991594;28;20042;-56
2021/05/18 15:48:41;;;;;;;3.97;0.40;;;23.50;59.80;;;23.04;42.01;100136.06;4990911;28;20058;-50